EGTK METAR and TAF | Updated Today

EGTK METAR

Oxford (Kidlington) Airport

Observation time: 7 min. ago

EGTK 011450Z 27012KT 9999 SCT032 BKN038 10/03 Q1024

Need help? Read our tutorial on how to read METARs or read the parsed version below.

Oxford (Kidlington) Airport (EGTK) METAR

  • Weather conditions on Wed, 01 Feb 2023 14:50:00 +0000 (7 min. ago):
  • Present conditions: Dry
  • Clouds: Scattered at 975 meters; broken sky at 1158 meters
  • Visibility: Greater than 10 km
  • Wind: 270 degrees at 12 knots
  • Temperature: 10 celsius
  • Dew point: 3 celsius
  • Pressure: 1024 millibars
  • Remarks: None


Useful to know...

EGTK TAF

Oxford (Kidlington) Airport

TAF EGTK 011051Z 0112/0121 27011KT 9999 SCT045 PROB30 TEMPO 0112/0119 26017G27KT
Observation time: 4:06 hr. ago
Need help? Read our tutorial on how to read TAFs or read the parsed version below.

Parsed version of TAF for Oxford (Kidlington) Airport (EGTK)

  • From 01 February at 12:00 UTC, to day 01 of the month at 21:00 UTC
  • Clouds: Scattered at 1372 meters
  • Visibility: Greater than 10 km
  • Wind: 270 degrees at 11
  • Expected to arise temporarily, from 01 February at 12:00 UTC, to day 01 of the month at 19:00 UTC
    Probability of 30%
  • Wind: 260 degrees at 17